PWSweather.com
Personal Weather Stations
Station Observations
ANTHEMNP
Anthem North Parkside, Anthem, AZ 85086

Anthem North ParksideAnthem, AZ 85086

Lat: 33.876464, Lon: -112.13861199999997

Elevation: 1930

Station Type: Davis Vantage Vue with Pro 2 console

http://www.azjerry.com/ANPW/wxindex.php

High Low Average
Temperature 104.9°F40.5°C 82.4°F28.0°C 92.8°F33.8°C
Dew Point 62.0°F16.7°C 46.0°F7.8°C 54.3°F12.4°C
Winds 6.3 mph 10.1 kmh Calm Calm 2.0 mph S3.2 kmh S
Wind Gusts 15.0 mph24.1 kmh -- 6.0 mph9.7 kmh
Humidity 41% 18% 28%
Pressure 29.91 in1012.9 mb 29.73 in1006.8 mb -
Precipitation 0.00 in0.0 mm - -
Hour Temp Dew Point Humidity Winds Wind Gusts Pressure Precip Precip Rate Daily Precip Total
12:00 AM 90.5°F32.5°C 49.0°F9.4°C 24% 1.4 mph NW2.3 kmh NW 5.0 mph8.0 kmh 29.78 in1008.5 mb 0.00 in0.0 mm 0.00 in0.0 mm 0.00 in0.0 mm
12:10 AM 89.7°F32.1°C 50.0°F10.0°C 25% 0.2 mph N0.3 kmh N 3.0 mph4.8 kmh 29.78 in1008.5 mb 0.00 in0.0 mm 0.00 in0.0 mm 0.00 in0.0 mm
12:20 AM 89.4°F31.9°C 49.0°F9.4°C 25% 0.8 mph NE1.3 kmh NE 3.0 mph4.8 kmh 29.78 in1008.5 mb 0.00 in0.0 mm 0.00 in0.0 mm 0.00 in0.0 mm
12:30 AM 89.4°F31.9°C 49.0°F9.4°C 25% 1.0 mph N1.6 kmh N 4.0 mph6.4 kmh 29.78 in1008.5 mb 0.00 in0.0 mm 0.00 in0.0 mm 0.00 in0.0 mm
12:40 AM 91.0°F32.8°C 46.0°F7.8°C 21% 3.8 mph NE6.1 kmh NE 8.0 mph12.9 kmh 29.78 in1008.5 mb 0.00 in0.0 mm 0.00 in0.0 mm 0.00 in0.0 mm
12:50 AM 91.4°F33.0°C 46.0°F7.8°C 21% 5.9 mph NNW9.5 kmh NNW 10.0 mph16.1 kmh 29.78 in1008.5 mb 0.00 in0.0 mm 0.00 in0.0 mm 0.00 in0.0 mm
01:00 AM 91.2°F32.9°C 46.0°F7.8°C 21% 5.8 mph NNE9.3 kmh NNE 11.0 mph17.7 kmh 29.77 in1008.1 mb 0.00 in0.0 mm 0.00 in0.0 mm 0.00 in0.0 mm
01:10 AM 90.7°F32.6°C 46.0°F7.8°C 21% 5.6 mph NNE9.0 kmh NNE 10.0 mph16.1 kmh 29.78 in1008.5 mb 0.00 in0.0 mm 0.00 in0.0 mm 0.00 in0.0 mm
01:20 AM 90.4°F32.4°C 47.0°F8.3°C 22% 5.8 mph NNW9.3 kmh NNW 11.0 mph17.7 kmh 29.78 in1008.5 mb 0.00 in0.0 mm 0.00 in0.0 mm 0.00 in0.0 mm
01:30 AM 90.3°F32.4°C 47.0°F8.3°C 22% 5.7 mph N9.2 kmh N 9.0 mph14.5 kmh 29.78 in1008.5 mb 0.00 in0.0 mm 0.00 in0.0 mm 0.00 in0.0 mm
01:40 AM 90.1°F32.3°C 46.0°F7.8°C 22% 1.6 mph N2.6 kmh N 5.0 mph8.0 kmh 29.78 in1008.5 mb 0.00 in0.0 mm 0.00 in0.0 mm 0.00 in0.0 mm
01:50 AM 89.3°F31.8°C 46.0°F7.8°C 22% 0.7 mph E1.1 kmh E 3.0 mph4.8 kmh 29.78 in1008.5 mb 0.00 in0.0 mm 0.00 in0.0 mm 0.00 in0.0 mm
02:00 AM 90.0°F32.2°C 46.0°F7.8°C 22% 1.7 mph NNE2.7 kmh NNE 7.0 mph11.3 kmh 29.78 in1008.5 mb 0.00 in0.0 mm 0.00 in0.0 mm 0.00 in0.0 mm
02:10 AM 90.4°F32.4°C 47.0°F8.3°C 22% 3.6 mph N5.8 kmh N 8.0 mph12.9 kmh 29.78 in1008.5 mb 0.00 in0.0 mm 0.00 in0.0 mm 0.00 in0.0 mm
02:20 AM 89.2°F31.8°C 47.0°F8.3°C 23% 2.2 mph N3.5 kmh N 6.0 mph9.7 kmh 29.78 in1008.5 mb 0.00 in0.0 mm 0.00 in0.0 mm 0.00 in0.0 mm
02:30 AM 88.9°F31.6°C 47.0°F8.3°C 23% 2.0 mph NNE3.2 kmh NNE 4.0 mph6.4 kmh 29.78 in1008.5 mb 0.00 in0.0 mm 0.00 in0.0 mm 0.00 in0.0 mm
02:40 AM 88.7°F31.5°C 46.0°F7.8°C 23% 2.1 mph NNW3.4 kmh NNW 5.0 mph8.0 kmh 29.78 in1008.5 mb 0.00 in0.0 mm 0.00 in0.0 mm 0.00 in0.0 mm
02:50 AM 88.3°F31.3°C 46.0°F7.8°C 23% 3.0 mph NNE4.8 kmh NNE 7.0 mph11.3 kmh 29.78 in1008.5 mb 0.00 in0.0 mm 0.00 in0.0 mm 0.00 in0.0 mm
03:00 AM 88.2°F31.2°C 47.0°F8.3°C 24% 2.4 mph NNE3.9 kmh NNE 6.0 mph9.7 kmh 29.79 in1008.8 mb 0.00 in0.0 mm 0.00 in0.0 mm 0.00 in0.0 mm
03:10 AM 87.6°F30.9°C 47.0°F8.3°C 24% 0.8 mph E1.3 kmh E 3.0 mph4.8 kmh 29.79 in1008.8 mb 0.00 in0.0 mm 0.00 in0.0 mm 0.00 in0.0 mm
03:20 AM 86.6°F30.3°C 49.0°F9.4°C 27% 0.1 mph SE0.2 kmh SE 3.0 mph4.8 kmh 29.80 in1009.1 mb 0.00 in0.0 mm 0.00 in0.0 mm 0.00 in0.0 mm
03:30 AM 85.4°F29.7°C 49.0°F9.4°C 28% 0.2 mph SE0.3 kmh SE 1.0 mph1.6 kmh 29.80 in1009.1 mb 0.00 in0.0 mm 0.00 in0.0 mm 0.00 in0.0 mm
03:40 AM 84.5°F29.2°C 49.0°F9.4°C 29% Calm Calm 1.0 mph1.6 kmh 29.80 in1009.1 mb 0.00 in0.0 mm 0.00 in0.0 mm 0.00 in0.0 mm
03:50 AM 83.8°F28.8°C 49.0°F9.4°C 30% 0.2 mph SE0.3 kmh SE 1.0 mph1.6 kmh 29.80 in1009.1 mb 0.00 in0.0 mm 0.00 in0.0 mm 0.00 in0.0 mm
04:00 AM 83.6°F28.7°C 49.0°F9.4°C 30% 0.2 mph SE0.3 kmh SE 1.0 mph1.6 kmh 29.81 in1009.5 mb 0.00 in0.0 mm 0.00 in0.0 mm 0.00 in0.0 mm
04:10 AM 83.1°F28.4°C 49.0°F9.4°C 30% Calm Calm 1.0 mph1.6 kmh 29.81 in1009.5 mb 0.00 in0.0 mm 0.00 in0.0 mm 0.00 in0.0 mm
04:20 AM 82.9°F28.3°C 48.0°F8.9°C 30% Calm Calm -- 29.81 in1009.5 mb 0.00 in0.0 mm 0.00 in0.0 mm 0.00 in0.0 mm
04:30 AM 82.4°F28.0°C 49.0°F9.4°C 31% Calm Calm -- 29.82 in1009.8 mb 0.00 in0.0 mm 0.00 in0.0 mm 0.00 in0.0 mm
04:40 AM 82.5°F28.1°C 47.0°F8.3°C 29% 0.2 mph SE0.3 kmh SE 2.0 mph3.2 kmh 29.82 in1009.8 mb 0.00 in0.0 mm 0.00 in0.0 mm 0.00 in0.0 mm
04:50 AM 83.1°F28.4°C 47.0°F8.3°C 28% 0.3 mph SE0.5 kmh SE 2.0 mph3.2 kmh 29.83 in1010.2 mb 0.00 in0.0 mm 0.00 in0.0 mm 0.00 in0.0 mm
05:00 AM 83.6°F28.7°C 48.0°F8.9°C 29% 1.2 mph SE1.9 kmh SE 4.0 mph6.4 kmh 29.84 in1010.5 mb 0.00 in0.0 mm 0.00 in0.0 mm 0.00 in0.0 mm
05:10 AM 83.8°F28.8°C 49.0°F9.4°C 30% 1.8 mph SE2.9 kmh SE 4.0 mph6.4 kmh 29.85 in1010.8 mb 0.00 in0.0 mm 0.00 in0.0 mm 0.00 in0.0 mm
05:20 AM 83.7°F28.7°C 50.0°F10.0°C 31% 1.9 mph ESE3.1 kmh ESE 5.0 mph8.0 kmh 29.85 in1010.8 mb 0.00 in0.0 mm 0.00 in0.0 mm 0.00 in0.0 mm
05:30 AM 83.6°F28.7°C 51.0°F10.6°C 32% 1.8 mph SE2.9 kmh SE 5.0 mph8.0 kmh 29.86 in1011.2 mb 0.00 in0.0 mm 0.00 in0.0 mm 0.00 in0.0 mm
05:40 AM 83.3°F28.5°C 51.0°F10.6°C 33% 1.8 mph SSE2.9 kmh SSE 4.0 mph6.4 kmh 29.86 in1011.2 mb 0.00 in0.0 mm 0.00 in0.0 mm 0.00 in0.0 mm
05:50 AM 83.0°F28.3°C 53.0°F11.7°C 35% 1.0 mph SSE1.6 kmh SSE 3.0 mph4.8 kmh 29.87 in1011.5 mb 0.00 in0.0 mm 0.00 in0.0 mm 0.00 in0.0 mm
06:00 AM 82.8°F28.2°C 53.0°F11.7°C 36% 0.5 mph SE0.8 kmh SE 2.0 mph3.2 kmh 29.87 in1011.5 mb 0.00 in0.0 mm 0.00 in0.0 mm 0.00 in0.0 mm
06:10 AM 82.6°F28.1°C 54.0°F12.2°C 37% 0.2 mph SE0.3 kmh SE 2.0 mph3.2 kmh 29.87 in1011.5 mb 0.00 in0.0 mm 0.00 in0.0 mm 0.00 in0.0 mm
06:20 AM 82.8°F28.2°C 55.0°F12.8°C 38% 0.4 mph N0.6 kmh N 4.0 mph6.4 kmh 29.88 in1011.9 mb 0.00 in0.0 mm 0.00 in0.0 mm 0.00 in0.0 mm
06:30 AM 82.5°F28.1°C 54.0°F12.2°C 38% 0.1 mph N0.2 kmh N 1.0 mph1.6 kmh 29.89 in1012.2 mb 0.00 in0.0 mm 0.00 in0.0 mm 0.00 in0.0 mm
06:40 AM 82.4°F28.0°C 56.0°F13.3°C 40% 0.1 mph ESE0.2 kmh ESE 2.0 mph3.2 kmh 29.89 in1012.2 mb 0.00 in0.0 mm 0.00 in0.0 mm 0.00 in0.0 mm
06:50 AM 83.0°F28.3°C 56.0°F13.3°C 40% 0.4 mph SE0.6 kmh SE 3.0 mph4.8 kmh 29.90 in1012.5 mb 0.00 in0.0 mm 0.00 in0.0 mm 0.00 in0.0 mm
07:00 AM 83.6°F28.7°C 57.0°F13.9°C 41% 0.4 mph SE0.6 kmh SE 3.0 mph4.8 kmh 29.90 in1012.5 mb 0.00 in0.0 mm 0.00 in0.0 mm 0.00 in0.0 mm
07:10 AM 84.4°F29.1°C 58.0°F14.4°C 40% 0.4 mph E0.6 kmh E 2.0 mph3.2 kmh 29.90 in1012.5 mb 0.00 in0.0 mm 0.00 in0.0 mm 0.00 in0.0 mm
07:20 AM 84.9°F29.4°C 58.0°F14.4°C 40% 0.5 mph SE0.8 kmh SE 3.0 mph4.8 kmh 29.91 in1012.9 mb 0.00 in0.0 mm 0.00 in0.0 mm 0.00 in0.0 mm
07:30 AM 85.6°F29.8°C 59.0°F15.0°C 40% 0.3 mph SSE0.5 kmh SSE 2.0 mph3.2 kmh 29.91 in1012.9 mb 0.00 in0.0 mm 0.00 in0.0 mm 0.00 in0.0 mm
07:40 AM 86.2°F30.1°C 59.0°F15.0°C 40% 1.3 mph SSE2.1 kmh SSE 3.0 mph4.8 kmh 29.91 in1012.9 mb 0.00 in0.0 mm 0.00 in0.0 mm 0.00 in0.0 mm
07:50 AM 88.2°F31.2°C 60.0°F15.6°C 38% 1.8 mph SSE2.9 kmh SSE 6.0 mph9.7 kmh 29.91 in1012.9 mb 0.00 in0.0 mm 0.00 in0.0 mm 0.00 in0.0 mm
08:00 AM 89.0°F31.7°C 60.0°F15.6°C 38% 2.2 mph SSW3.5 kmh SSW 6.0 mph9.7 kmh 29.91 in1012.9 mb 0.00 in0.0 mm 0.00 in0.0 mm 0.00 in0.0 mm
08:10 AM 90.2°F32.3°C 60.0°F15.6°C 36% 1.7 mph SSE2.7 kmh SSE 5.0 mph8.0 kmh 29.91 in1012.9 mb 0.00 in0.0 mm 0.00 in0.0 mm 0.00 in0.0 mm
08:20 AM 91.6°F33.1°C 60.0°F15.6°C 35% 1.7 mph S2.7 kmh S 5.0 mph8.0 kmh 29.91 in1012.9 mb 0.00 in0.0 mm 0.00 in0.0 mm 0.00 in0.0 mm
08:30 AM 91.7°F33.2°C 60.0°F15.6°C 35% 1.7 mph S2.7 kmh S 5.0 mph8.0 kmh 29.91 in1012.9 mb 0.00 in0.0 mm 0.00 in0.0 mm 0.00 in0.0 mm
08:40 AM 92.0°F33.3°C 61.0°F16.1°C 35% 1.2 mph SE1.9 kmh SE 4.0 mph6.4 kmh 29.91 in1012.9 mb 0.00 in0.0 mm 0.00 in0.0 mm 0.00 in0.0 mm
08:50 AM 91.9°F33.3°C 61.0°F16.1°C 35% 1.8 mph SSE2.9 kmh SSE 5.0 mph8.0 kmh 29.91 in1012.9 mb 0.00 in0.0 mm 0.00 in0.0 mm 0.00 in0.0 mm
09:00 AM 91.9°F33.3°C 60.0°F15.6°C 34% 1.7 mph SSW2.7 kmh SSW 4.0 mph6.4 kmh 29.91 in1012.9 mb 0.00 in0.0 mm 0.00 in0.0 mm 0.00 in0.0 mm
09:10 AM 91.9°F33.3°C 60.0°F15.6°C 34% 2.2 mph SE3.5 kmh SE 6.0 mph9.7 kmh 29.91 in1012.9 mb 0.00 in0.0 mm 0.00 in0.0 mm 0.00 in0.0 mm
09:20 AM 93.2°F34.0°C 61.0°F16.1°C 34% 0.7 mph SSE1.1 kmh SSE 3.0 mph4.8 kmh 29.91 in1012.9 mb 0.00 in0.0 mm 0.00 in0.0 mm 0.00 in0.0 mm
09:30 AM 94.0°F34.4°C 62.0°F16.7°C 34% 0.5 mph SSW0.8 kmh SSW 3.0 mph4.8 kmh 29.91 in1012.9 mb 0.00 in0.0 mm 0.00 in0.0 mm 0.00 in0.0 mm
09:40 AM 93.9°F34.4°C 61.0°F16.1°C 33% 1.9 mph SE3.1 kmh SE 5.0 mph8.0 kmh 29.91 in1012.9 mb 0.00 in0.0 mm 0.00 in0.0 mm 0.00 in0.0 mm
09:50 AM 93.4°F34.1°C 60.0°F15.6°C 33% 2.2 mph S3.5 kmh S 6.0 mph9.7 kmh 29.91 in1012.9 mb 0.00 in0.0 mm 0.00 in0.0 mm 0.00 in0.0 mm
10:00 AM 94.0°F34.4°C 61.0°F16.1°C 33% 0.9 mph SE1.4 kmh SE 3.0 mph4.8 kmh 29.90 in1012.5 mb 0.00 in0.0 mm 0.00 in0.0 mm 0.00 in0.0 mm
10:10 AM 93.5°F34.2°C 60.0°F15.6°C 33% 1.3 mph NNE2.1 kmh NNE 3.0 mph4.8 kmh 29.90 in1012.5 mb 0.00 in0.0 mm 0.00 in0.0 mm 0.00 in0.0 mm
10:20 AM 93.7°F34.3°C 60.0°F15.6°C 32% 1.4 mph NW2.3 kmh NW 4.0 mph6.4 kmh 29.90 in1012.5 mb 0.00 in0.0 mm 0.00 in0.0 mm 0.00 in0.0 mm
10:30 AM 94.4°F34.7°C 59.0°F15.0°C 31% 1.4 mph SSW2.3 kmh SSW 7.0 mph11.3 kmh 29.90 in1012.5 mb 0.00 in0.0 mm 0.00 in0.0 mm 0.00 in0.0 mm
10:40 AM 94.7°F34.8°C 60.0°F15.6°C 31% 1.4 mph NW2.3 kmh NW 5.0 mph8.0 kmh 29.90 in1012.5 mb 0.00 in0.0 mm 0.00 in0.0 mm 0.00 in0.0 mm
10:50 AM 95.4°F35.2°C 59.0°F15.0°C 30% 0.9 mph S1.4 kmh S 4.0 mph6.4 kmh 29.89 in1012.2 mb 0.00 in0.0 mm 0.00 in0.0 mm 0.00 in0.0 mm
11:00 AM 95.7°F35.4°C 60.0°F15.6°C 30% 1.3 mph S2.1 kmh S 5.0 mph8.0 kmh 29.90 in1012.5 mb 0.00 in0.0 mm 0.00 in0.0 mm 0.00 in0.0 mm
11:10 AM 95.7°F35.4°C 59.0°F15.0°C 29% 2.4 mph S3.9 kmh S 7.0 mph11.3 kmh 29.89 in1012.2 mb 0.00 in0.0 mm 0.00 in0.0 mm 0.00 in0.0 mm
11:20 AM 96.1°F35.6°C 59.0°F15.0°C 29% 1.8 mph SW2.9 kmh SW 4.0 mph6.4 kmh 29.88 in1011.9 mb 0.00 in0.0 mm 0.00 in0.0 mm 0.00 in0.0 mm
11:30 AM 96.0°F35.6°C 60.0°F15.6°C 30% 1.5 mph WNW2.4 kmh WNW 5.0 mph8.0 kmh 29.88 in1011.9 mb 0.00 in0.0 mm 0.00 in0.0 mm 0.00 in0.0 mm
11:40 AM 96.6°F35.9°C 59.0°F15.0°C 28% 1.8 mph NNE2.9 kmh NNE 5.0 mph8.0 kmh 29.88 in1011.9 mb 0.00 in0.0 mm 0.00 in0.0 mm 0.00 in0.0 mm
11:50 AM 97.8°F36.6°C 59.0°F15.0°C 27% 1.4 mph SSW2.3 kmh SSW 6.0 mph9.7 kmh 29.87 in1011.5 mb 0.00 in0.0 mm 0.00 in0.0 mm 0.00 in0.0 mm
12:00 PM 97.1°F36.2°C 58.0°F14.4°C 27% 2.7 mph SSE4.3 kmh SSE 9.0 mph14.5 kmh 29.86 in1011.2 mb 0.00 in0.0 mm 0.00 in0.0 mm 0.00 in0.0 mm
12:10 PM 98.0°F36.7°C 59.0°F15.0°C 27% 2.1 mph SE3.4 kmh SE 5.0 mph8.0 kmh 29.86 in1011.2 mb 0.00 in0.0 mm 0.00 in0.0 mm 0.00 in0.0 mm
12:20 PM 98.7°F37.1°C 58.0°F14.4°C 26% 1.5 mph SSW2.4 kmh SSW 7.0 mph11.3 kmh 29.85 in1010.8 mb 0.00 in0.0 mm 0.00 in0.0 mm 0.00 in0.0 mm
12:30 PM 99.3°F37.4°C 58.0°F14.4°C 25% 2.2 mph SE3.5 kmh SE 6.0 mph9.7 kmh 29.85 in1010.8 mb 0.00 in0.0 mm 0.00 in0.0 mm 0.00 in0.0 mm
12:40 PM 99.8°F37.7°C 57.0°F13.9°C 24% 2.0 mph ESE3.2 kmh ESE 7.0 mph11.3 kmh 29.84 in1010.5 mb 0.00 in0.0 mm 0.00 in0.0 mm 0.00 in0.0 mm
12:50 PM 100.0°F37.8°C 57.0°F13.9°C 24% 1.9 mph NW3.1 kmh NW 5.0 mph8.0 kmh 29.84 in1010.5 mb 0.00 in0.0 mm 0.00 in0.0 mm 0.00 in0.0 mm
01:00 PM 100.1°F37.8°C 57.0°F13.9°C 24% 1.3 mph S2.1 kmh S 7.0 mph11.3 kmh 29.84 in1010.5 mb 0.00 in0.0 mm 0.00 in0.0 mm 0.00 in0.0 mm
01:10 PM 101.6°F38.7°C 56.0°F13.3°C 22% 1.4 mph WSW2.3 kmh WSW 5.0 mph8.0 kmh 29.83 in1010.2 mb 0.00 in0.0 mm 0.00 in0.0 mm 0.00 in0.0 mm
01:20 PM 101.7°F38.7°C 56.0°F13.3°C 22% 2.8 mph SE4.5 kmh SE 7.0 mph11.3 kmh 29.83 in1010.2 mb 0.00 in0.0 mm 0.00 in0.0 mm 0.00 in0.0 mm
01:30 PM 101.6°F38.7°C 56.0°F13.3°C 22% 2.8 mph W4.5 kmh W 8.0 mph12.9 kmh 29.82 in1009.8 mb 0.00 in0.0 mm 0.00 in0.0 mm 0.00 in0.0 mm
01:40 PM 101.9°F38.8°C 54.0°F12.2°C 20% 2.7 mph SE4.3 kmh SE 8.0 mph12.9 kmh 29.82 in1009.8 mb 0.00 in0.0 mm 0.00 in0.0 mm 0.00 in0.0 mm
01:50 PM 101.9°F38.8°C 58.0°F14.4°C 23% 3.6 mph SSW5.8 kmh SSW 10.0 mph16.1 kmh 29.81 in1009.5 mb 0.00 in0.0 mm 0.00 in0.0 mm 0.00 in0.0 mm
02:00 PM 102.7°F39.3°C 57.0°F13.9°C 22% 3.4 mph S5.5 kmh S 13.0 mph20.9 kmh 29.80 in1009.1 mb 0.00 in0.0 mm 0.00 in0.0 mm 0.00 in0.0 mm
02:10 PM 102.5°F39.2°C 57.0°F13.9°C 22% 4.4 mph SSW7.1 kmh SSW 10.0 mph16.1 kmh 29.80 in1009.1 mb 0.00 in0.0 mm 0.00 in0.0 mm 0.00 in0.0 mm
02:20 PM 102.7°F39.3°C 57.0°F13.9°C 22% 3.3 mph SW5.3 kmh SW 12.0 mph19.3 kmh 29.79 in1008.8 mb 0.00 in0.0 mm 0.00 in0.0 mm 0.00 in0.0 mm
02:30 PM 102.7°F39.3°C 57.0°F13.9°C 22% 3.7 mph SSW6.0 kmh SSW 11.0 mph17.7 kmh 29.79 in1008.8 mb 0.00 in0.0 mm 0.00 in0.0 mm 0.00 in0.0 mm
02:40 PM 103.7°F39.8°C 58.0°F14.4°C 22% 3.3 mph S5.3 kmh S 11.0 mph17.7 kmh 29.78 in1008.5 mb 0.00 in0.0 mm 0.00 in0.0 mm 0.00 in0.0 mm
02:50 PM 103.8°F39.9°C 57.0°F13.9°C 21% 2.9 mph S4.7 kmh S 9.0 mph14.5 kmh 29.77 in1008.1 mb 0.00 in0.0 mm 0.00 in0.0 mm 0.00 in0.0 mm
03:00 PM 103.6°F39.8°C 57.0°F13.9°C 21% 4.1 mph SSW6.6 kmh SSW 10.0 mph16.1 kmh 29.77 in1008.1 mb 0.00 in0.0 mm 0.00 in0.0 mm 0.00 in0.0 mm
03:10 PM 104.0°F40.0°C 56.0°F13.3°C 20% 3.2 mph WSW5.1 kmh WSW 8.0 mph12.9 kmh 29.76 in1007.8 mb 0.00 in0.0 mm 0.00 in0.0 mm 0.00 in0.0 mm
03:20 PM 103.8°F39.9°C 56.0°F13.3°C 20% 4.6 mph S7.4 kmh S 12.0 mph19.3 kmh 29.76 in1007.8 mb 0.00 in0.0 mm 0.00 in0.0 mm 0.00 in0.0 mm
03:30 PM 103.9°F39.9°C 56.0°F13.3°C 20% 3.2 mph S5.1 kmh S 8.0 mph12.9 kmh 29.75 in1007.5 mb 0.00 in0.0 mm 0.00 in0.0 mm 0.00 in0.0 mm
03:40 PM 104.5°F40.3°C 56.0°F13.3°C 20% 3.9 mph SW6.3 kmh SW 9.0 mph14.5 kmh 29.75 in1007.5 mb 0.00 in0.0 mm 0.00 in0.0 mm 0.00 in0.0 mm
03:50 PM 104.9°F40.5°C 56.0°F13.3°C 20% 4.5 mph SSW7.2 kmh SSW 15.0 mph24.1 kmh 29.75 in1007.5 mb 0.00 in0.0 mm 0.00 in0.0 mm 0.00 in0.0 mm
04:00 PM 104.4°F40.2°C 55.0°F12.8°C 19% 4.4 mph S7.1 kmh S 9.0 mph14.5 kmh 29.74 in1007.1 mb 0.00 in0.0 mm 0.00 in0.0 mm 0.00 in0.0 mm
04:10 PM 104.1°F40.1°C 54.0°F12.2°C 19% 4.6 mph SW7.4 kmh SW 11.0 mph17.7 kmh 29.73 in1006.8 mb 0.00 in0.0 mm 0.00 in0.0 mm 0.00 in0.0 mm
04:20 PM 104.0°F40.0°C 54.0°F12.2°C 19% 6.3 mph SW10.1 kmh SW 13.0 mph20.9 kmh 29.73 in1006.8 mb 0.00 in0.0 mm 0.00 in0.0 mm 0.00 in0.0 mm
04:30 PM 104.1°F40.1°C 54.0°F12.2°C 19% 4.6 mph SW7.4 kmh SW 12.0 mph19.3 kmh 29.73 in1006.8 mb 0.00 in0.0 mm 0.00 in0.0 mm 0.00 in0.0 mm
04:40 PM 104.7°F40.4°C 53.0°F11.7°C 18% 5.3 mph SSW8.5 kmh SSW 13.0 mph20.9 kmh 29.73 in1006.8 mb 0.00 in0.0 mm 0.00 in0.0 mm 0.00 in0.0 mm
04:50 PM 104.2°F40.1°C 54.0°F12.2°C 19% 5.5 mph SW8.9 kmh SW 11.0 mph17.7 kmh 29.73 in1006.8 mb 0.00 in0.0 mm 0.00 in0.0 mm 0.00 in0.0 mm
05:00 PM 104.0°F40.0°C 53.0°F11.7°C 18% 5.4 mph SSW8.7 kmh SSW 11.0 mph17.7 kmh 29.73 in1006.8 mb 0.00 in0.0 mm 0.00 in0.0 mm 0.00 in0.0 mm
05:10 PM 103.5°F39.7°C 55.0°F12.8°C 20% 5.3 mph SSW8.5 kmh SSW 11.0 mph17.7 kmh 29.73 in1006.8 mb 0.00 in0.0 mm 0.00 in0.0 mm 0.00 in0.0 mm
05:20 PM 103.4°F39.7°C 55.0°F12.8°C 20% 4.1 mph SSE6.6 kmh SSE 8.0 mph12.9 kmh 29.73 in1006.8 mb 0.00 in0.0 mm 0.00 in0.0 mm 0.00 in0.0 mm
05:30 PM 103.4°F39.7°C 55.0°F12.8°C 20% 3.7 mph S6.0 kmh S 9.0 mph14.5 kmh 29.73 in1006.8 mb 0.00 in0.0 mm 0.00 in0.0 mm 0.00 in0.0 mm
05:40 PM 103.7°F39.8°C 55.0°F12.8°C 20% 3.4 mph SW5.5 kmh SW 10.0 mph16.1 kmh 29.73 in1006.8 mb 0.00 in0.0 mm 0.00 in0.0 mm 0.00 in0.0 mm
05:50 PM 103.4°F39.7°C 55.0°F12.8°C 20% 3.3 mph SE5.3 kmh SE 7.0 mph11.3 kmh 29.73 in1006.8 mb 0.00 in0.0 mm 0.00 in0.0 mm 0.00 in0.0 mm
06:00 PM 103.2°F39.6°C 55.0°F12.8°C 20% 4.0 mph S6.4 kmh S 9.0 mph14.5 kmh 29.73 in1006.8 mb 0.00 in0.0 mm 0.00 in0.0 mm 0.00 in0.0 mm
06:10 PM 102.8°F39.3°C 55.0°F12.8°C 20% 4.4 mph S7.1 kmh S 9.0 mph14.5 kmh 29.73 in1006.8 mb 0.00 in0.0 mm 0.00 in0.0 mm 0.00 in0.0 mm
06:20 PM 102.1°F38.9°C 55.0°F12.8°C 21% 4.2 mph S6.8 kmh S 10.0 mph16.1 kmh 29.73 in1006.8 mb 0.00 in0.0 mm 0.00 in0.0 mm 0.00 in0.0 mm
06:30 PM 101.7°F38.7°C 56.0°F13.3°C 22% 3.1 mph S5.0 kmh S 8.0 mph12.9 kmh 29.73 in1006.8 mb 0.00 in0.0 mm 0.00 in0.0 mm 0.00 in0.0 mm
06:40 PM 101.1°F38.4°C 56.0°F13.3°C 22% 3.1 mph SE5.0 kmh SE 9.0 mph14.5 kmh 29.73 in1006.8 mb 0.00 in0.0 mm 0.00 in0.0 mm 0.00 in0.0 mm
06:50 PM 100.6°F38.1°C 55.0°F12.8°C 22% 2.9 mph SE4.7 kmh SE 10.0 mph16.1 kmh 29.73 in1006.8 mb 0.00 in0.0 mm 0.00 in0.0 mm 0.00 in0.0 mm
07:00 PM 100.0°F37.8°C 56.0°F13.3°C 23% 3.3 mph SSE5.3 kmh SSE 8.0 mph12.9 kmh 29.73 in1006.8 mb 0.00 in0.0 mm 0.00 in0.0 mm 0.00 in0.0 mm
07:10 PM 99.7°F37.6°C 56.0°F13.3°C 23% 2.6 mph S4.2 kmh S 7.0 mph11.3 kmh 29.73 in1006.8 mb 0.00 in0.0 mm 0.00 in0.0 mm 0.00 in0.0 mm
07:20 PM 99.1°F37.3°C 55.0°F12.8°C 23% 2.0 mph SE3.2 kmh SE 4.0 mph6.4 kmh 29.73 in1006.8 mb 0.00 in0.0 mm 0.00 in0.0 mm 0.00 in0.0 mm
07:30 PM 98.6°F37.0°C 55.0°F12.8°C 23% 1.8 mph SE2.9 kmh SE 5.0 mph8.0 kmh 29.74 in1007.1 mb 0.00 in0.0 mm 0.00 in0.0 mm 0.00 in0.0 mm
07:40 PM 98.2°F36.8°C 55.0°F12.8°C 23% 2.4 mph SSE3.9 kmh SSE 5.0 mph8.0 kmh 29.74 in1007.1 mb 0.00 in0.0 mm 0.00 in0.0 mm 0.00 in0.0 mm
07:50 PM 97.9°F36.6°C 54.0°F12.2°C 23% 2.4 mph SSE3.9 kmh SSE 5.0 mph8.0 kmh 29.75 in1007.5 mb 0.00 in0.0 mm 0.00 in0.0 mm 0.00 in0.0 mm
08:00 PM 97.4°F36.3°C 54.0°F12.2°C 23% 2.6 mph ESE4.2 kmh ESE 5.0 mph8.0 kmh 29.75 in1007.5 mb 0.00 in0.0 mm 0.00 in0.0 mm 0.00 in0.0 mm
08:10 PM 96.8°F36.0°C 54.0°F12.2°C 24% 1.1 mph SE1.8 kmh SE 3.0 mph4.8 kmh 29.76 in1007.8 mb 0.00 in0.0 mm 0.00 in0.0 mm 0.00 in0.0 mm
08:20 PM 96.1°F35.6°C 54.0°F12.2°C 24% 1.3 mph SE2.1 kmh SE 3.0 mph4.8 kmh 29.76 in1007.8 mb 0.00 in0.0 mm 0.00 in0.0 mm 0.00 in0.0 mm
08:30 PM 95.4°F35.2°C 53.0°F11.7°C 24% 1.2 mph SE1.9 kmh SE 3.0 mph4.8 kmh 29.77 in1008.1 mb 0.00 in0.0 mm 0.00 in0.0 mm 0.00 in0.0 mm
08:40 PM 95.0°F35.0°C 53.0°F11.7°C 24% 1.0 mph SE1.6 kmh SE 3.0 mph4.8 kmh 29.77 in1008.1 mb 0.00 in0.0 mm 0.00 in0.0 mm 0.00 in0.0 mm
08:50 PM 94.8°F34.9°C 53.0°F11.7°C 24% 0.7 mph SSE1.1 kmh SSE 2.0 mph3.2 kmh 29.77 in1008.1 mb 0.00 in0.0 mm 0.00 in0.0 mm 0.00 in0.0 mm
09:00 PM 94.5°F34.7°C 53.0°F11.7°C 24% 0.8 mph SE1.3 kmh SE 2.0 mph3.2 kmh 29.78 in1008.5 mb 0.00 in0.0 mm 0.00 in0.0 mm 0.00 in0.0 mm
09:10 PM 94.4°F34.7°C 54.0°F12.2°C 25% 1.1 mph SE1.8 kmh SE 3.0 mph4.8 kmh 29.78 in1008.5 mb 0.00 in0.0 mm 0.00 in0.0 mm 0.00 in0.0 mm
09:20 PM 94.0°F34.4°C 53.0°F11.7°C 25% 0.8 mph SE1.3 kmh SE 3.0 mph4.8 kmh 29.78 in1008.5 mb 0.00 in0.0 mm 0.00 in0.0 mm 0.00 in0.0 mm
09:30 PM 93.6°F34.2°C 53.0°F11.7°C 25% 0.3 mph SE0.5 kmh SE 3.0 mph4.8 kmh 29.78 in1008.5 mb 0.00 in0.0 mm 0.00 in0.0 mm 0.00 in0.0 mm
09:40 PM 93.4°F34.1°C 53.0°F11.7°C 25% 0.3 mph SE0.5 kmh SE 2.0 mph3.2 kmh 29.78 in1008.5 mb 0.00 in0.0 mm 0.00 in0.0 mm 0.00 in0.0 mm
09:50 PM 93.4°F34.1°C 52.0°F11.1°C 24% Calm Calm 1.0 mph1.6 kmh 29.79 in1008.8 mb 0.00 in0.0 mm 0.00 in0.0 mm 0.00 in0.0 mm
10:00 PM 94.3°F34.6°C 51.0°F10.6°C 23% 1.1 mph SE1.8 kmh SE 3.0 mph4.8 kmh 29.78 in1008.5 mb 0.00 in0.0 mm 0.00 in0.0 mm 0.00 in0.0 mm
10:10 PM 94.2°F34.6°C 51.0°F10.6°C 23% 0.5 mph SE0.8 kmh SE 2.0 mph3.2 kmh 29.78 in1008.5 mb 0.00 in0.0 mm 0.00 in0.0 mm 0.00 in0.0 mm
10:20 PM 94.3°F34.6°C 51.0°F10.6°C 23% 1.1 mph SE1.8 kmh SE 3.0 mph4.8 kmh 29.79 in1008.8 mb 0.00 in0.0 mm 0.00 in0.0 mm 0.00 in0.0 mm
10:30 PM 93.9°F34.4°C 51.0°F10.6°C 23% 0.1 mph SE0.2 kmh SE 1.0 mph1.6 kmh 29.79 in1008.8 mb 0.00 in0.0 mm 0.00 in0.0 mm 0.00 in0.0 mm
10:40 PM 93.4°F34.1°C 52.0°F11.1°C 24% 0.1 mph SE0.2 kmh SE 1.0 mph1.6 kmh 29.79 in1008.8 mb 0.00 in0.0 mm 0.00 in0.0 mm 0.00 in0.0 mm
10:50 PM 92.8°F33.8°C 52.0°F11.1°C 25% 0.1 mph SE0.2 kmh SE 1.0 mph1.6 kmh 29.79 in1008.8 mb 0.00 in0.0 mm 0.00 in0.0 mm 0.00 in0.0 mm
11:00 PM 92.6°F33.7°C 52.0°F11.1°C 25% 0.3 mph SE0.5 kmh SE 2.0 mph3.2 kmh 29.79 in1008.8 mb 0.00 in0.0 mm 0.00 in0.0 mm 0.00 in0.0 mm
11:10 PM 92.4°F33.6°C 52.0°F11.1°C 25% 0.1 mph SE0.2 kmh SE 1.0 mph1.6 kmh 29.79 in1008.8 mb 0.00 in0.0 mm 0.00 in0.0 mm 0.00 in0.0 mm
11:20 PM 92.0°F33.3°C 51.0°F10.6°C 25% Calm Calm 1.0 mph1.6 kmh 29.79 in1008.8 mb 0.00 in0.0 mm 0.00 in0.0 mm 0.00 in0.0 mm
11:30 PM 92.2°F33.4°C 52.0°F11.1°C 25% 0.2 mph SE0.3 kmh SE 1.0 mph1.6 kmh 29.79 in1008.8 mb 0.00 in0.0 mm 0.00 in0.0 mm 0.00 in0.0 mm
11:40 PM 92.2°F33.4°C 52.0°F11.1°C 25% 0.4 mph SE0.6 kmh SE 1.0 mph1.6 kmh 29.79 in1008.8 mb 0.00 in0.0 mm 0.00 in0.0 mm 0.00 in0.0 mm
11:50 PM 92.2°F33.4°C 52.0°F11.1°C 25% 0.2 mph SE0.3 kmh SE 2.0 mph3.2 kmh 29.79 in1008.8 mb 0.00 in0.0 mm 0.00 in0.0 mm 0.00 in0.0 mm